createdAt,value
2023-03-31T00:00:37.204Z,92.30
2023-03-31T00:03:10.333Z,92.50
2023-03-31T00:05:39.604Z,92.00
2023-03-31T00:08:07.661Z,91.90
2023-03-31T00:10:35.181Z,92.00
2023-03-31T00:13:03.111Z,92.20
2023-03-31T00:15:30.109Z,92.10
2023-03-31T00:18:00.763Z,92.10
2023-03-31T00:20:28.099Z,92.00
2023-03-31T00:22:57.989Z,91.50
2023-03-31T00:25:25.020Z,90.90
2023-03-31T00:27:52.903Z,91.90
2023-03-31T00:30:20.273Z,92.00
2023-03-31T00:32:47.277Z,91.80
2023-03-31T00:35:14.168Z,91.60
2023-03-31T00:37:43.429Z,91.10
2023-03-31T00:40:11.020Z,91.90
2023-03-31T00:42:42.070Z,92.40
2023-03-31T00:45:21.882Z,93.00
2023-03-31T00:48:11.832Z,94.10
2023-03-31T00:51:03.524Z,93.50
2023-03-31T00:53:32.462Z,93.70
2023-03-31T00:56:07.276Z,94.70
2023-03-31T00:58:34.699Z,95.30
2023-03-31T01:01:03.596Z,95.80
2023-03-31T01:03:33.619Z,95.80
2023-03-31T01:06:07.291Z,95.60
2023-03-31T01:08:36.726Z,95.30
2023-03-31T01:11:09.997Z,95.80
2023-03-31T01:13:39.096Z,95.90
2023-03-31T01:16:06.664Z,96.30
2023-03-31T01:18:36.734Z,95.90
2023-03-31T01:21:31.471Z,95.70
2023-03-31T01:24:40.274Z,95.70
2023-03-31T01:27:54.160Z,95.80
2023-03-31T01:30:48.798Z,96.00
2023-03-31T01:33:35.434Z,95.80
2023-03-31T01:36:36.358Z,95.20
2023-03-31T01:39:32.151Z,95.80
2023-03-31T01:42:10.970Z,95.70
2023-03-31T01:45:08.263Z,95.20
2023-03-31T01:47:49.317Z,94.00
2023-03-31T01:50:19.103Z,93.10
2023-03-31T01:52:53.271Z,92.80
2023-03-31T01:55:29.988Z,92.50
2023-03-31T01:58:21.743Z,91.90
2023-03-31T02:00:57.121Z,91.00
2023-03-31T02:03:49.750Z,90.30
2023-03-31T02:06:24.591Z,91.20
2023-03-31T02:09:11.114Z,92.70
2023-03-31T02:11:40.345Z,95.10
2023-03-31T02:14:11.628Z,98.60
2023-03-31T02:16:47.777Z,99.90
2023-03-31T02:19:19.235Z,99.90
2023-03-31T02:21:51.531Z,99.90
2023-03-31T02:24:22.041Z,99.90
2023-03-31T02:27:12.958Z,99.90
2023-03-31T02:29:40.289Z,99.90
2023-03-31T02:32:37.893Z,99.90
2023-03-31T02:35:07.198Z,99.90
2023-03-31T02:37:34.821Z,99.90
2023-03-31T02:40:09.076Z,99.90
2023-03-31T02:42:37.413Z,99.90
2023-03-31T02:45:06.577Z,99.90
2023-03-31T02:47:34.703Z,99.90
2023-03-31T02:50:04.236Z,99.90
2023-03-31T02:53:16.428Z,99.90
2023-03-31T02:56:23.637Z,99.90
2023-03-31T02:59:31.528Z,99.90
2023-03-31T03:02:39.774Z,99.90
2023-03-31T03:05:50.003Z,99.90
2023-03-31T03:08:40.471Z,99.90
2023-03-31T03:11:36.065Z,99.90
2023-03-31T03:14:31.012Z,99.90
2023-03-31T03:17:10.828Z,99.90
2023-03-31T03:19:37.826Z,99.90
2023-03-31T03:22:05.593Z,99.90
2023-03-31T03:24:34.501Z,99.90
2023-03-31T03:27:01.681Z,99.90
2023-03-31T03:29:28.737Z,99.90
2023-03-31T03:31:59.864Z,99.90
2023-03-31T03:34:27.123Z,99.90
2023-03-31T03:36:54.149Z,99.90
2023-03-31T03:39:21.256Z,99.90
2023-03-31T03:41:48.194Z,99.90
2023-03-31T03:44:15.405Z,99.90
2023-03-31T03:46:42.340Z,99.90
2023-03-31T03:49:09.390Z,99.90
2023-03-31T03:51:36.454Z,99.90
2023-03-31T03:54:03.495Z,99.90
2023-03-31T03:56:30.529Z,99.90
2023-03-31T03:58:57.765Z,99.90
2023-03-31T04:01:24.743Z,99.90
2023-03-31T04:03:51.647Z,99.90
2023-03-31T04:06:18.663Z,99.90
2023-03-31T04:08:45.761Z,99.90
2023-03-31T04:11:18.935Z,99.90
2023-03-31T04:13:47.024Z,99.90
2023-03-31T04:16:14.534Z,99.90
2023-03-31T04:18:42.965Z,99.90
2023-03-31T04:21:12.531Z,99.90
2023-03-31T04:23:46.857Z,99.90
2023-03-31T04:26:14.950Z,99.90
2023-03-31T04:28:47.014Z,99.90
2023-03-31T04:31:25.682Z,99.90
2023-03-31T04:33:56.226Z,99.90
2023-03-31T04:36:23.262Z,99.90
2023-03-31T04:38:55.090Z,99.90
2023-03-31T04:41:23.050Z,99.90
2023-03-31T04:43:50.070Z,99.90
2023-03-31T04:46:17.317Z,99.90
2023-03-31T04:48:44.301Z,99.90
2023-03-31T04:51:11.326Z,99.90
2023-03-31T04:53:39.484Z,99.90
2023-03-31T04:56:07.798Z,99.90
2023-03-31T04:58:35.173Z,99.90
2023-03-31T05:01:02.442Z,99.90
2023-03-31T05:03:29.701Z,99.90
2023-03-31T05:05:57.006Z,99.90
2023-03-31T05:08:23.973Z,99.90
2023-03-31T05:10:50.916Z,99.90
2023-03-31T05:13:18.844Z,99.90
2023-03-31T05:15:45.767Z,99.90
2023-03-31T05:18:12.769Z,99.90
2023-03-31T05:20:39.735Z,99.90
2023-03-31T05:23:07.284Z,99.90
2023-03-31T05:25:34.457Z,99.90
2023-03-31T05:28:02.186Z,99.90
2023-03-31T05:30:30.108Z,99.90
2023-03-31T05:32:57.734Z,99.90
2023-03-31T05:35:24.876Z,99.90
2023-03-31T05:37:53.124Z,99.90
2023-03-31T05:40:22.715Z,99.90
2023-03-31T05:42:49.743Z,99.90
2023-03-31T05:45:16.811Z,99.90
2023-03-31T05:47:43.908Z,99.90
2023-03-31T05:50:14.647Z,99.90
2023-03-31T05:52:41.877Z,99.90
2023-03-31T05:55:09.607Z,99.90
2023-03-31T05:57:36.498Z,99.90
2023-03-31T06:00:06.182Z,99.90
2023-03-31T06:02:34.010Z,99.90
2023-03-31T06:05:01.124Z,99.90
2023-03-31T06:07:29.078Z,99.90
2023-03-31T06:09:56.051Z,99.90
2023-03-31T06:12:23.032Z,99.90
2023-03-31T06:14:50.026Z,99.90
2023-03-31T06:17:16.975Z,99.90
2023-03-31T06:19:43.885Z,99.90
2023-03-31T06:22:10.824Z,99.90
2023-03-31T06:24:37.875Z,99.90
2023-03-31T06:27:06.999Z,99.90
2023-03-31T06:29:33.944Z,99.90
2023-03-31T06:32:03.033Z,99.90
2023-03-31T06:34:29.976Z,99.90
2023-03-31T06:36:57.081Z,99.90
2023-03-31T06:39:26.960Z,99.90
2023-03-31T06:41:55.071Z,99.90
2023-03-31T06:44:23.299Z,99.90
2023-03-31T06:46:50.729Z,99.90
2023-03-31T06:49:17.833Z,99.90
2023-03-31T06:51:44.744Z,99.30
2023-03-31T06:54:11.657Z,97.20
2023-03-31T06:56:38.623Z,94.90
2023-03-31T06:59:05.632Z,91.50
2023-03-31T07:01:32.743Z,89.20
2023-03-31T07:03:59.767Z,82.60
2023-03-31T07:06:26.739Z,80.10
2023-03-31T07:08:53.602Z,79.00
2023-03-31T07:11:21.183Z,78.10
2023-03-31T07:13:48.246Z,75.50
2023-03-31T07:16:15.649Z,74.00
2023-03-31T07:18:42.959Z,74.10
2023-03-31T07:21:11.038Z,78.70
2023-03-31T07:23:38.607Z,84.00
2023-03-31T07:26:06.514Z,90.30
2023-03-31T07:28:33.696Z,92.90
2023-03-31T07:31:01.052Z,94.80
2023-03-31T07:33:28.001Z,96.70
2023-03-31T07:36:08.340Z,97.90
2023-03-31T07:38:38.498Z,99.20
2023-03-31T07:41:09.492Z,99.90
2023-03-31T07:43:37.052Z,99.90
2023-03-31T07:46:05.967Z,99.90
2023-03-31T07:48:33.954Z,99.90
2023-03-31T07:51:00.976Z,99.90
2023-03-31T07:53:27.928Z,99.90
2023-03-31T07:55:54.841Z,99.90
2023-03-31T07:58:21.736Z,99.90
2023-03-31T08:00:48.836Z,99.90
2023-03-31T08:03:15.954Z,99.90
2023-03-31T08:05:42.936Z,99.90
2023-03-31T08:08:09.862Z,99.90
2023-03-31T08:10:36.883Z,99.90
2023-03-31T08:13:03.891Z,99.90
2023-03-31T08:15:31.089Z,99.90
2023-03-31T08:17:58.122Z,99.90
2023-03-31T08:20:25.656Z,99.90
2023-03-31T08:22:52.608Z,99.90
2023-03-31T08:25:20.795Z,99.90
2023-03-31T08:27:51.372Z,99.90
2023-03-31T08:30:20.197Z,99.90
2023-03-31T08:32:47.525Z,99.90
2023-03-31T08:35:14.904Z,99.90
2023-03-31T08:37:41.884Z,99.90
2023-03-31T08:40:18.470Z,99.90
2023-03-31T08:42:49.583Z,99.90
2023-03-31T08:45:25.723Z,99.90
2023-03-31T08:48:14.747Z,99.90
2023-03-31T08:50:51.022Z,99.90
2023-03-31T08:53:44.168Z,99.90
2023-03-31T08:56:17.226Z,99.90
2023-03-31T08:58:47.924Z,99.90
2023-03-31T09:01:41.034Z,99.90
2023-03-31T09:04:27.369Z,99.90
2023-03-31T09:07:20.375Z,99.90
2023-03-31T09:10:12.965Z,99.90
2023-03-31T09:13:10.522Z,99.90
2023-03-31T09:16:05.471Z,99.90
2023-03-31T09:18:35.920Z,99.90
2023-03-31T09:21:41.068Z,99.90
2023-03-31T09:24:39.421Z,99.90
2023-03-31T09:27:12.636Z,99.90
2023-03-31T09:29:51.532Z,99.90
2023-03-31T09:32:21.782Z,99.90
2023-03-31T09:34:52.987Z,99.90
2023-03-31T09:37:20.212Z,99.90
2023-03-31T09:39:47.214Z,99.90
2023-03-31T09:42:14.905Z,99.90
2023-03-31T09:44:45.268Z,99.90
2023-03-31T09:47:42.819Z,99.90
2023-03-31T09:50:11.553Z,99.90
2023-03-31T09:52:42.890Z,99.90
2023-03-31T09:55:48.054Z,99.90
2023-03-31T09:58:16.829Z,99.90
2023-03-31T10:01:10.172Z,99.90
2023-03-31T10:03:54.547Z,98.40
2023-03-31T10:06:23.636Z,95.50
2023-03-31T10:09:00.181Z,98.60
2023-03-31T10:11:27.396Z,98.40
2023-03-31T10:14:15.842Z,99.90
2023-03-31T10:16:55.530Z,99.20
2023-03-31T10:19:27.916Z,98.20
2023-03-31T10:22:03.452Z,99.90
2023-03-31T10:24:47.111Z,99.90
2023-03-31T10:27:31.671Z,99.90
2023-03-31T10:30:00.942Z,96.20
2023-03-31T10:32:33.923Z,96.70
2023-03-31T10:35:30.270Z,94.90
2023-03-31T10:38:07.686Z,91.10
2023-03-31T10:40:36.542Z,94.00
2023-03-31T10:43:20.551Z,94.60
2023-03-31T10:45:54.896Z,94.60
2023-03-31T10:48:29.326Z,93.80
2023-03-31T10:51:19.591Z,94.70
2023-03-31T10:53:53.400Z,95.20
2023-03-31T10:56:39.030Z,92.90
2023-03-31T10:59:52.952Z,93.50
2023-03-31T11:02:48.644Z,92.10
2023-03-31T11:05:56.191Z,92.60
2023-03-31T11:09:12.582Z,94.70
2023-03-31T11:11:39.512Z,92.00
2023-03-31T11:14:18.346Z,90.60
2023-03-31T11:17:21.042Z,90.00
2023-03-31T11:20:19.390Z,87.10
2023-03-31T11:23:22.489Z,83.60
2023-03-31T11:26:10.969Z,90.40
2023-03-31T11:29:12.161Z,93.30
2023-03-31T11:32:09.564Z,94.40
2023-03-31T11:35:24.180Z,95.80
2023-03-31T11:38:28.356Z,92.90
2023-03-31T11:41:16.068Z,90.00
2023-03-31T11:43:51.206Z,87.30
2023-03-31T11:46:31.706Z,78.60
2023-03-31T11:49:04.797Z,68.80
2023-03-31T11:52:02.217Z,59.30
2023-03-31T11:54:42.323Z,58.60
2023-03-31T11:57:38.538Z,51.60
2023-03-31T12:00:32.810Z,50.00
2023-03-31T12:03:23.165Z,46.90
2023-03-31T12:05:53.895Z,39.00
2023-03-31T12:08:50.270Z,37.50
2023-03-31T12:11:22.261Z,43.80
2023-03-31T12:14:14.384Z,53.40
2023-03-31T12:16:46.400Z,62.80
2023-03-31T12:19:48.163Z,72.40
2023-03-31T12:22:52.530Z,85.20
2023-03-31T12:25:23.285Z,84.60
2023-03-31T12:27:51.661Z,90.10
2023-03-31T12:30:31.732Z,91.70
2023-03-31T12:33:19.937Z,92.40
2023-03-31T12:36:08.996Z,91.00
2023-03-31T12:39:24.064Z,88.00
2023-03-31T12:42:32.687Z,89.80
2023-03-31T12:45:46.002Z,89.30
2023-03-31T12:49:06.614Z,86.80
2023-03-31T12:52:07.775Z,80.70
2023-03-31T12:54:48.825Z,82.00
2023-03-31T12:57:22.153Z,73.70
2023-03-31T13:00:12.801Z,76.30
2023-03-31T13:02:43.571Z,75.00
2023-03-31T13:05:38.029Z,68.10
2023-03-31T13:08:07.070Z,56.00
2023-03-31T13:10:50.692Z,57.30
2023-03-31T13:13:18.247Z,51.80
2023-03-31T13:15:56.882Z,42.50
2023-03-31T13:18:24.763Z,43.20
2023-03-31T13:21:05.964Z,40.90
2023-03-31T13:23:37.966Z,44.10
2023-03-31T13:26:07.073Z,43.00
2023-03-31T13:28:40.238Z,43.50
2023-03-31T13:31:08.808Z,48.20
2023-03-31T13:33:38.918Z,46.20
2023-03-31T13:36:34.720Z,42.60
2023-03-31T13:39:39.816Z,53.90
2023-03-31T13:43:00.246Z,62.90
2023-03-31T13:46:06.658Z,74.70
2023-03-31T13:49:06.023Z,73.30
2023-03-31T13:51:42.570Z,60.20
2023-03-31T13:54:27.956Z,60.10
2023-03-31T14:00:51.510Z,57.30
2023-03-31T14:06:45.203Z,49.40
2023-03-31T14:09:28.401Z,43.80
2023-03-31T14:11:57.227Z,43.70
2023-03-31T14:17:19.597Z,41.00
2023-03-31T14:20:10.688Z,41.60
2023-03-31T14:22:50.518Z,44.70
2023-03-31T14:25:50.382Z,45.70
2023-03-31T14:28:54.388Z,31.90
2023-03-31T14:31:52.805Z,29.00
2023-03-31T14:34:52.653Z,27.90
2023-03-31T14:37:21.907Z,31.70
2023-03-31T14:39:52.919Z,29.20
2023-03-31T14:42:25.383Z,25.00
2023-03-31T14:44:57.340Z,27.10
2023-03-31T14:47:29.472Z,26.20
2023-03-31T14:50:16.696Z,27.90
2023-03-31T14:52:53.637Z,31.90
2023-03-31T14:55:35.617Z,33.90
2023-03-31T14:58:15.054Z,34.00
2023-03-31T15:00:42.385Z,34.70
2023-03-31T15:03:15.445Z,36.10
2023-03-31T15:05:43.771Z,36.80
2023-03-31T15:08:22.308Z,34.10
2023-03-31T15:10:58.919Z,33.20
2023-03-31T15:13:56.695Z,33.50
2023-03-31T15:16:43.076Z,32.90
2023-03-31T15:19:30.227Z,38.00
2023-03-31T15:22:02.941Z,36.10
2023-03-31T15:24:30.648Z,36.90
2023-03-31T15:27:04.989Z,39.30
2023-03-31T15:29:46.484Z,34.20
2023-03-31T15:32:43.473Z,36.30
2023-03-31T15:35:30.693Z,36.20
2023-03-31T15:37:59.810Z,35.00
2023-03-31T15:40:37.713Z,35.30
2023-03-31T15:43:25.998Z,34.20
2023-03-31T15:46:05.138Z,34.20
2023-03-31T15:48:37.729Z,30.50
2023-03-31T15:51:24.929Z,34.10
2023-03-31T15:54:27.499Z,36.50
2023-03-31T15:56:59.539Z,36.90
2023-03-31T15:59:37.939Z,40.20
2023-03-31T16:02:31.415Z,41.40
2023-03-31T16:05:04.326Z,35.00
2023-03-31T16:07:34.960Z,41.90
2023-03-31T16:10:19.961Z,48.10
2023-03-31T16:13:08.868Z,61.40
2023-03-31T16:15:40.975Z,82.00
2023-03-31T16:18:17.302Z,90.50
2023-03-31T16:20:53.453Z,94.20
2023-03-31T16:23:25.147Z,99.90
2023-03-31T16:25:52.599Z,99.90
2023-03-31T16:28:29.146Z,99.90
2023-03-31T16:30:56.156Z,99.90
2023-03-31T16:33:25.078Z,99.90
2023-03-31T16:35:56.362Z,99.90
2023-03-31T16:38:25.721Z,99.90
2023-03-31T16:40:54.829Z,99.90
2023-03-31T16:43:27.467Z,99.90
2023-03-31T16:46:03.590Z,99.90
2023-03-31T16:48:34.948Z,99.90
2023-03-31T16:51:02.265Z,99.90
2023-03-31T16:53:34.593Z,99.90
2023-03-31T16:56:02.222Z,99.90
2023-03-31T16:58:29.604Z,99.90
2023-03-31T17:00:58.885Z,99.90
2023-03-31T17:03:26.629Z,99.00
2023-03-31T17:05:59.374Z,93.50
2023-03-31T17:08:27.802Z,92.90
2023-03-31T17:10:59.851Z,89.20
2023-03-31T17:13:27.295Z,85.10
2023-03-31T17:16:01.418Z,81.60
2023-03-31T17:18:35.822Z,82.90
2023-03-31T17:21:08.063Z,80.10
2023-03-31T17:23:36.495Z,79.90
2023-03-31T17:26:04.289Z,82.10
2023-03-31T17:28:31.557Z,84.00
2023-03-31T17:30:58.910Z,89.20
2023-03-31T17:33:28.088Z,90.00
2023-03-31T17:35:58.818Z,90.50
2023-03-31T17:38:26.643Z,88.80
2023-03-31T17:40:54.644Z,91.20
2023-03-31T17:43:22.028Z,89.80
2023-03-31T17:45:49.535Z,92.00
2023-03-31T17:48:16.625Z,92.60
2023-03-31T17:50:43.827Z,92.60
2023-03-31T17:53:10.840Z,92.90
2023-03-31T17:55:40.755Z,91.30
2023-03-31T17:58:08.790Z,92.20
2023-03-31T18:00:35.870Z,91.40
2023-03-31T18:03:03.456Z,91.30
2023-03-31T18:05:32.495Z,92.30
2023-03-31T18:07:59.584Z,93.10
2023-03-31T18:10:29.420Z,92.80
2023-03-31T18:12:59.311Z,93.50
2023-03-31T18:15:26.442Z,93.50
2023-03-31T18:17:53.530Z,94.00
2023-03-31T18:20:20.929Z,96.10
2023-03-31T18:22:47.827Z,96.10
2023-03-31T18:25:15.466Z,96.90
2023-03-31T18:27:43.034Z,96.20
2023-03-31T18:30:10.884Z,96.70
2023-03-31T18:32:38.759Z,96.00
2023-03-31T18:35:06.549Z,96.50
2023-03-31T18:37:34.014Z,95.10
2023-03-31T18:40:01.615Z,95.80
2023-03-31T18:42:28.867Z,98.30
2023-03-31T18:44:55.760Z,99.40
2023-03-31T18:47:22.734Z,99.90
2023-03-31T18:49:53.925Z,99.90
2023-03-31T18:52:21.448Z,99.90
2023-03-31T18:54:50.116Z,99.90
2023-03-31T18:57:17.791Z,99.90
2023-03-31T18:59:44.808Z,99.90
2023-03-31T19:02:18.123Z,99.90
2023-03-31T19:04:47.141Z,99.90
2023-03-31T19:07:15.719Z,99.90
2023-03-31T19:09:42.738Z,99.90
2023-03-31T19:12:11.082Z,99.90
2023-03-31T19:14:38.209Z,99.90
2023-03-31T19:17:05.601Z,99.90
2023-03-31T19:19:32.685Z,99.90
2023-03-31T19:22:00.131Z,99.90
2023-03-31T19:24:27.584Z,99.90
2023-03-31T19:26:55.087Z,99.90
2023-03-31T19:29:22.227Z,99.90
2023-03-31T19:31:52.351Z,99.90
2023-03-31T19:34:19.279Z,99.90
2023-03-31T19:36:46.302Z,99.90
2023-03-31T19:39:13.478Z,99.90
2023-03-31T19:41:40.444Z,99.90
2023-03-31T19:44:07.680Z,99.90
2023-03-31T19:46:34.634Z,99.90
2023-03-31T19:49:01.722Z,99.90
2023-03-31T19:51:28.811Z,99.90
2023-03-31T19:53:55.805Z,99.90
2023-03-31T19:56:27.182Z,99.90
2023-03-31T19:58:54.198Z,99.90
2023-03-31T20:01:27.505Z,99.90
2023-03-31T20:03:56.183Z,99.90
2023-03-31T20:06:25.717Z,99.90
2023-03-31T20:08:55.569Z,99.90
2023-03-31T20:11:23.594Z,99.90
2023-03-31T20:13:50.924Z,99.90
2023-03-31T20:16:20.393Z,99.90
2023-03-31T20:18:56.796Z,99.90
2023-03-31T20:21:27.314Z,99.90
2023-03-31T20:23:54.960Z,99.90
2023-03-31T20:26:25.256Z,99.90
2023-03-31T20:28:54.337Z,99.90
2023-03-31T20:31:26.755Z,99.90
2023-03-31T20:33:54.585Z,99.90
2023-03-31T20:36:24.602Z,99.90
2023-03-31T20:38:53.999Z,99.90
2023-03-31T20:41:23.956Z,99.90
2023-03-31T20:43:50.883Z,99.90
2023-03-31T20:46:18.420Z,99.90
2023-03-31T20:48:48.018Z,99.90
2023-03-31T20:51:18.219Z,99.90
2023-03-31T20:53:48.245Z,99.90
2023-03-31T20:56:18.397Z,99.90
2023-03-31T20:58:46.328Z,99.90
2023-03-31T21:01:14.237Z,99.90
2023-03-31T21:03:41.768Z,99.90
2023-03-31T21:06:12.073Z,99.90
2023-03-31T21:08:40.845Z,99.90
2023-03-31T21:11:08.772Z,99.90
2023-03-31T21:13:35.805Z,99.90
2023-03-31T21:16:04.622Z,99.90
2023-03-31T21:18:33.497Z,99.90
2023-03-31T21:21:03.736Z,99.90
2023-03-31T21:23:31.057Z,99.90
2023-03-31T21:26:00.407Z,99.90
2023-03-31T21:28:30.345Z,99.90
2023-03-31T21:31:09.896Z,99.90
2023-03-31T21:33:38.898Z,99.90
2023-03-31T21:36:10.778Z,99.90
2023-03-31T21:38:38.110Z,99.90
2023-03-31T21:41:12.249Z,99.90
2023-03-31T21:43:40.020Z,99.90
2023-03-31T21:46:07.434Z,99.90
2023-03-31T21:48:34.894Z,99.90
2023-03-31T21:51:03.170Z,99.90
2023-03-31T21:53:31.651Z,99.90
2023-03-31T21:55:59.355Z,99.90
2023-03-31T21:58:29.151Z,99.90
2023-03-31T22:01:02.114Z,99.90
2023-03-31T22:03:29.275Z,99.90
2023-03-31T22:05:57.583Z,99.90
2023-03-31T22:08:27.033Z,99.90
2023-03-31T22:10:55.529Z,99.90
2023-03-31T22:13:24.396Z,99.90
2023-03-31T22:15:51.622Z,99.90
2023-03-31T22:18:19.187Z,99.90
2023-03-31T22:20:47.042Z,99.90
2023-03-31T22:23:15.010Z,99.90
2023-03-31T22:25:41.932Z,99.90
2023-03-31T22:32:05.640Z,99.90
2023-03-31T22:34:32.893Z,99.90
2023-03-31T22:37:00.175Z,99.90
2023-03-31T22:39:27.249Z,99.90
2023-03-31T22:41:54.206Z,99.90
2023-03-31T22:44:21.774Z,99.90
2023-03-31T22:46:50.005Z,99.90
2023-03-31T22:49:17.265Z,99.90
2023-03-31T22:51:45.273Z,99.90
2023-03-31T22:54:16.222Z,99.90
2023-03-31T22:56:44.330Z,99.90
2023-03-31T22:59:12.091Z,99.90
2023-03-31T23:01:39.053Z,99.90
2023-03-31T23:04:06.717Z,99.90
2023-03-31T23:06:36.134Z,99.90
2023-03-31T23:09:03.204Z,99.90
2023-03-31T23:11:30.602Z,99.90
2023-03-31T23:13:57.601Z,99.90
2023-03-31T23:16:26.346Z,99.90
2023-03-31T23:18:54.981Z,99.90
2023-03-31T23:21:26.942Z,99.90
2023-03-31T23:23:56.567Z,99.90
2023-03-31T23:26:26.424Z,99.90
2023-03-31T23:28:53.544Z,99.90
2023-03-31T23:31:24.027Z,99.90
2023-03-31T23:33:57.432Z,99.90
2023-03-31T23:39:16.270Z,99.90
2023-03-31T23:41:49.206Z,99.90
2023-03-31T23:44:16.535Z,99.90
2023-03-31T23:46:44.550Z,99.90
2023-03-31T23:49:12.272Z,99.90
2023-03-31T23:51:39.272Z,99.90
2023-03-31T23:54:06.218Z,99.90
2023-03-31T23:56:34.505Z,99.90
2023-03-31T23:59:01.669Z,99.90
